Colnbrook, United Kingdom
Current Conditions -  °F | °C
As of 10:20 AM on Sunday 26 Oct 2014 (Local Time) from EGLL Reporting Station
Broken Clouds Broken Clouds  
Wind Chill: 57°   Ceiling: 3200
Heat Index: 57°   Visibility: 6mi
Dew Point: 48°   Wind: 8mph
Humidity: 72%   Direction: 210°SSW
Pressure: 30.18"   Gusts: NA
Location:  51.48°N, 0.52°W
Report Text: EGLL 260920Z 21007KT 9999 BKN032 14/09 Q1022 NOSIG
Loading
Personal Weather Stations






























Interactive Weather Map
Tropical Storm Tracking
New forecast layout! Learn more

10-Day Weather Forecast

Advertisements
Track Severe Weather on mobile